sensor_id;sensor_type;location;lat;lon;timestamp;P1;durP1;ratioP1;P2;durP2;ratioP2
43744;SDS011;29359;53.048;8.732;2023-03-23T00:01:31;9.13;;;8.07;;
43744;SDS011;29359;53.048;8.732;2023-03-23T00:03:37;9.20;;;8.38;;
43744;SDS011;29359;53.048;8.732;2023-03-23T00:05:38;9.40;;;8.43;;
43744;SDS011;29359;53.048;8.732;2023-03-23T00:07:41;9.25;;;8.35;;
43744;SDS011;29359;53.048;8.732;2023-03-23T00:09:45;9.65;;;8.82;;
43744;SDS011;29359;53.048;8.732;2023-03-23T00:11:47;8.80;;;8.10;;
43744;SDS011;29359;53.048;8.732;2023-03-23T00:13:48;9.15;;;8.25;;
43744;SDS011;29359;53.048;8.732;2023-03-23T00:15:53;9.43;;;8.57;;
43744;SDS011;29359;53.048;8.732;2023-03-23T00:17:53;10.38;;;8.80;;
43744;SDS011;29359;53.048;8.732;2023-03-23T00:20:02;10.75;;;9.80;;
43744;SDS011;29359;53.048;8.732;2023-03-23T00:22:05;10.82;;;9.82;;
43744;SDS011;29359;53.048;8.732;2023-03-23T00:26:17;10.98;;;9.82;;
43744;SDS011;29359;53.048;8.732;2023-03-23T00:28:18;12.25;;;9.88;;
43744;SDS011;29359;53.048;8.732;2023-03-23T00:30:25;11.70;;;10.52;;
43744;SDS011;29359;53.048;8.732;2023-03-23T00:32:26;11.52;;;10.43;;
43744;SDS011;29359;53.048;8.732;2023-03-23T00:34:30;11.65;;;10.50;;
43744;SDS011;29359;53.048;8.732;2023-03-23T00:36:34;11.45;;;10.25;;
43744;SDS011;29359;53.048;8.732;2023-03-23T00:38:35;11.40;;;10.23;;
43744;SDS011;29359;53.048;8.732;2023-03-23T00:40:38;11.05;;;10.00;;
43744;SDS011;29359;53.048;8.732;2023-03-23T00:42:39;12.57;;;11.32;;
43744;SDS011;29359;53.048;8.732;2023-03-23T00:44:39;11.80;;;10.45;;
43744;SDS011;29359;53.048;8.732;2023-03-23T00:46:42;10.90;;;9.90;;
43744;SDS011;29359;53.048;8.732;2023-03-23T00:48:46;10.23;;;9.23;;
43744;SDS011;29359;53.048;8.732;2023-03-23T00:50:47;10.45;;;9.50;;
43744;SDS011;29359;53.048;8.732;2023-03-23T00:52:49;10.60;;;9.60;;
43744;SDS011;29359;53.048;8.732;2023-03-23T00:54:52;11.35;;;9.77;;
43744;SDS011;29359;53.048;8.732;2023-03-23T00:56:53;9.55;;;8.70;;
43744;SDS011;29359;53.048;8.732;2023-03-23T00:58:54;10.02;;;9.02;;
43744;SDS011;29359;53.048;8.732;2023-03-23T01:00:55;9.70;;;8.85;;
43744;SDS011;29359;53.048;8.732;2023-03-23T01:02:56;9.90;;;8.88;;
43744;SDS011;29359;53.048;8.732;2023-03-23T01:05:03;10.98;;;9.10;;
43744;SDS011;29359;53.048;8.732;2023-03-23T01:07:03;9.80;;;8.82;;
43744;SDS011;29359;53.048;8.732;2023-03-23T01:09:08;9.75;;;8.73;;
43744;SDS011;29359;53.048;8.732;2023-03-23T01:11:15;10.80;;;9.50;;
43744;SDS011;29359;53.048;8.732;2023-03-23T01:13:16;9.50;;;8.50;;
43744;SDS011;29359;53.048;8.732;2023-03-23T01:15:17;10.10;;;9.02;;
43744;SDS011;29359;53.048;8.732;2023-03-23T01:17:18;11.43;;;9.63;;
43744;SDS011;29359;53.048;8.732;2023-03-23T01:19:19;10.50;;;8.85;;
43744;SDS011;29359;53.048;8.732;2023-03-23T01:21:20;8.90;;;8.07;;
43744;SDS011;29359;53.048;8.732;2023-03-23T01:23:21;9.98;;;9.05;;
43744;SDS011;29359;53.048;8.732;2023-03-23T01:25:22;9.75;;;8.85;;
43744;SDS011;29359;53.048;8.732;2023-03-23T01:27:22;9.75;;;8.82;;
43744;SDS011;29359;53.048;8.732;2023-03-23T01:29:24;11.82;;;9.45;;
43744;SDS011;29359;53.048;8.732;2023-03-23T01:31:25;11.70;;;9.68;;
43744;SDS011;29359;53.048;8.732;2023-03-23T01:33:26;10.75;;;8.80;;
43744;SDS011;29359;53.048;8.732;2023-03-23T01:35:26;10.90;;;9.65;;
43744;SDS011;29359;53.048;8.732;2023-03-23T01:37:27;12.10;;;9.63;;
43744;SDS011;29359;53.048;8.732;2023-03-23T01:39:27;10.65;;;9.50;;
43744;SDS011;29359;53.048;8.732;2023-03-23T01:41:27;10.75;;;9.63;;
43744;SDS011;29359;53.048;8.732;2023-03-23T01:43:28;12.90;;;9.43;;
43744;SDS011;29359;53.048;8.732;2023-03-23T01:45:30;10.20;;;9.15;;
43744;SDS011;29359;53.048;8.732;2023-03-23T01:47:35;11.25;;;10.25;;
43744;SDS011;29359;53.048;8.732;2023-03-23T01:49:37;10.98;;;9.93;;
43744;SDS011;29359;53.048;8.732;2023-03-23T01:51:44;11.48;;;10.15;;
43744;SDS011;29359;53.048;8.732;2023-03-23T01:53:53;11.83;;;9.87;;
43744;SDS011;29359;53.048;8.732;2023-03-23T01:55:56;12.55;;;11.00;;
43744;SDS011;29359;53.048;8.732;2023-03-23T01:58:00;11.38;;;10.18;;
43744;SDS011;29359;53.048;8.732;2023-03-23T02:00:02;12.35;;;10.75;;
43744;SDS011;29359;53.048;8.732;2023-03-23T02:02:11;12.70;;;10.43;;
43744;SDS011;29359;53.048;8.732;2023-03-23T02:04:13;11.80;;;10.60;;
43744;SDS011;29359;53.048;8.732;2023-03-23T02:06:17;13.70;;;11.07;;
43744;SDS011;29359;53.048;8.732;2023-03-23T02:08:20;10.55;;;9.55;;
43744;SDS011;29359;53.048;8.732;2023-03-23T02:10:23;11.95;;;10.75;;
43744;SDS011;29359;53.048;8.732;2023-03-23T02:12:24;11.52;;;10.02;;
43744;SDS011;29359;53.048;8.732;2023-03-23T02:14:25;11.25;;;10.00;;
43744;SDS011;29359;53.048;8.732;2023-03-23T02:18:30;12.52;;;9.55;;
43744;SDS011;29359;53.048;8.732;2023-03-23T02:20:52;11.27;;;9.90;;
43744;SDS011;29359;53.048;8.732;2023-03-23T02:30:43;13.43;;;10.57;;
43744;SDS011;29359;53.048;8.732;2023-03-23T02:35:31;10.98;;;9.88;;
43744;SDS011;29359;53.048;8.732;2023-03-23T02:40:18;11.45;;;9.30;;
43744;SDS011;29359;53.048;8.732;2023-03-23T02:42:24;13.98;;;10.02;;
43744;SDS011;29359;53.048;8.732;2023-03-23T02:44:28;11.27;;;9.95;;
43744;SDS011;29359;53.048;8.732;2023-03-23T02:46:31;11.63;;;9.50;;
43744;SDS011;29359;53.048;8.732;2023-03-23T02:48:33;13.05;;;9.93;;
43744;SDS011;29359;53.048;8.732;2023-03-23T02:50:36;11.50;;;10.30;;
43744;SDS011;29359;53.048;8.732;2023-03-23T02:52:40;10.50;;;9.60;;
43744;SDS011;29359;53.048;8.732;2023-03-23T02:54:43;11.30;;;10.05;;
43744;SDS011;29359;53.048;8.732;2023-03-23T02:56:47;15.38;;;9.30;;
43744;SDS011;29359;53.048;8.732;2023-03-23T02:58:48;11.60;;;10.25;;
43744;SDS011;29359;53.048;8.732;2023-03-23T03:00:50;9.85;;;8.90;;
43744;SDS011;29359;53.048;8.732;2023-03-23T03:02:52;10.98;;;9.60;;
43744;SDS011;29359;53.048;8.732;2023-03-23T03:11:48;9.73;;;8.82;;
43744;SDS011;29359;53.048;8.732;2023-03-23T03:13:53;9.68;;;8.68;;
43744;SDS011;29359;53.048;8.732;2023-03-23T03:16:04;9.52;;;8.23;;
43744;SDS011;29359;53.048;8.732;2023-03-23T03:18:18;9.95;;;8.70;;
43744;SDS011;29359;53.048;8.732;2023-03-23T03:20:26;11.80;;;8.70;;
43744;SDS011;29359;53.048;8.732;2023-03-23T03:22:29;8.77;;;8.05;;
43744;SDS011;29359;53.048;8.732;2023-03-23T03:24:30;10.68;;;8.20;;
43744;SDS011;29359;53.048;8.732;2023-03-23T03:26:32;9.55;;;8.55;;
43744;SDS011;29359;53.048;8.732;2023-03-23T03:28:34;11.05;;;8.63;;
43744;SDS011;29359;53.048;8.732;2023-03-23T03:30:36;8.57;;;7.70;;
43744;SDS011;29359;53.048;8.732;2023-03-23T03:32:39;8.82;;;7.80;;
43744;SDS011;29359;53.048;8.732;2023-03-23T03:36:47;11.25;;;8.68;;
43744;SDS011;29359;53.048;8.732;2023-03-23T03:38:51;8.55;;;7.57;;
43744;SDS011;29359;53.048;8.732;2023-03-23T03:40:53;9.85;;;7.80;;
43744;SDS011;29359;53.048;8.732;2023-03-23T03:42:55;8.93;;;7.50;;
43744;SDS011;29359;53.048;8.732;2023-03-23T03:44:56;8.65;;;7.72;;
43744;SDS011;29359;53.048;8.732;2023-03-23T03:46:57;13.18;;;7.68;;
43744;SDS011;29359;53.048;8.732;2023-03-23T03:48:57;9.32;;;8.43;;
43744;SDS011;29359;53.048;8.732;2023-03-23T03:50:58;7.95;;;7.25;;
43744;SDS011;29359;53.048;8.732;2023-03-23T03:53:00;10.40;;;8.25;;
43744;SDS011;29359;53.048;8.732;2023-03-23T03:55:00;11.50;;;7.60;;
43744;SDS011;29359;53.048;8.732;2023-03-23T03:57:01;9.55;;;8.07;;
43744;SDS011;29359;53.048;8.732;2023-03-23T03:59:03;8.23;;;7.45;;
43744;SDS011;29359;53.048;8.732;2023-03-23T04:01:05;12.25;;;7.75;;
43744;SDS011;29359;53.048;8.732;2023-03-23T04:03:05;8.15;;;7.35;;
43744;SDS011;29359;53.048;8.732;2023-03-23T04:05:08;8.30;;;7.38;;
43744;SDS011;29359;53.048;8.732;2023-03-23T04:07:10;8.80;;;7.10;;
43744;SDS011;29359;53.048;8.732;2023-03-23T04:09:14;9.45;;;7.00;;
43744;SDS011;29359;53.048;8.732;2023-03-23T04:11:15;8.63;;;6.97;;
43744;SDS011;29359;53.048;8.732;2023-03-23T04:13:15;13.88;;;6.97;;
43744;SDS011;29359;53.048;8.732;2023-03-23T04:15:16;8.27;;;7.18;;
43744;SDS011;29359;53.048;8.732;2023-03-23T04:17:16;8.18;;;6.97;;
43744;SDS011;29359;53.048;8.732;2023-03-23T04:19:17;7.15;;;6.45;;
43744;SDS011;29359;53.048;8.732;2023-03-23T04:21:19;9.95;;;6.72;;
43744;SDS011;29359;53.048;8.732;2023-03-23T04:23:20;8.70;;;6.63;;
43744;SDS011;29359;53.048;8.732;2023-03-23T04:25:21;6.85;;;6.15;;
43744;SDS011;29359;53.048;8.732;2023-03-23T04:27:24;7.25;;;5.97;;
43744;SDS011;29359;53.048;8.732;2023-03-23T04:29:27;6.50;;;5.28;;
43744;SDS011;29359;53.048;8.732;2023-03-23T04:31:28;7.50;;;5.97;;
43744;SDS011;29359;53.048;8.732;2023-03-23T04:33:29;7.07;;;5.55;;
43744;SDS011;29359;53.048;8.732;2023-03-23T04:35:31;6.57;;;5.97;;
43744;SDS011;29359;53.048;8.732;2023-03-23T04:37:31;6.32;;;5.72;;
43744;SDS011;29359;53.048;8.732;2023-03-23T04:39:31;6.18;;;5.50;;
43744;SDS011;29359;53.048;8.732;2023-03-23T04:41:33;5.97;;;5.07;;
43744;SDS011;29359;53.048;8.732;2023-03-23T04:43:36;7.97;;;5.13;;
43744;SDS011;29359;53.048;8.732;2023-03-23T04:45:41;5.57;;;5.07;;
43744;SDS011;29359;53.048;8.732;2023-03-23T04:47:47;5.22;;;4.68;;
43744;SDS011;29359;53.048;8.732;2023-03-23T04:49:52;5.13;;;4.70;;
43744;SDS011;29359;53.048;8.732;2023-03-23T04:51:53;6.93;;;4.80;;
43744;SDS011;29359;53.048;8.732;2023-03-23T04:53:53;5.20;;;4.70;;
43744;SDS011;29359;53.048;8.732;2023-03-23T04:55:54;6.63;;;4.93;;
43744;SDS011;29359;53.048;8.732;2023-03-23T04:57:55;5.00;;;4.38;;
43744;SDS011;29359;53.048;8.732;2023-03-23T04:59:56;6.72;;;4.72;;
43744;SDS011;29359;53.048;8.732;2023-03-23T05:01:57;5.10;;;4.60;;
43744;SDS011;29359;53.048;8.732;2023-03-23T05:03:58;5.45;;;4.28;;
43744;SDS011;29359;53.048;8.732;2023-03-23T05:06:01;5.65;;;4.97;;
43744;SDS011;29359;53.048;8.732;2023-03-23T05:08:03;5.18;;;4.07;;
43744;SDS011;29359;53.048;8.732;2023-03-23T05:10:04;7.50;;;4.32;;
43744;SDS011;29359;53.048;8.732;2023-03-23T05:12:06;6.80;;;3.88;;
43744;SDS011;29359;53.048;8.732;2023-03-23T05:14:08;5.20;;;4.22;;
43744;SDS011;29359;53.048;8.732;2023-03-23T05:16:08;5.40;;;4.03;;
43744;SDS011;29359;53.048;8.732;2023-03-23T05:18:10;7.40;;;4.32;;
43744;SDS011;29359;53.048;8.732;2023-03-23T05:20:12;4.07;;;3.75;;
43744;SDS011;29359;53.048;8.732;2023-03-23T05:22:14;8.07;;;4.03;;
43744;SDS011;29359;53.048;8.732;2023-03-23T05:24:15;5.97;;;3.95;;
43744;SDS011;29359;53.048;8.732;2023-03-23T05:26:15;9.95;;;3.97;;
43744;SDS011;29359;53.048;8.732;2023-03-23T05:28:16;5.03;;;4.03;;
43744;SDS011;29359;53.048;8.732;2023-03-23T05:30:16;5.05;;;4.13;;
43744;SDS011;29359;53.048;8.732;2023-03-23T05:32:17;5.47;;;4.10;;
43744;SDS011;29359;53.048;8.732;2023-03-23T05:34:19;4.40;;;4.00;;
43744;SDS011;29359;53.048;8.732;2023-03-23T05:36:19;4.60;;;4.20;;
43744;SDS011;29359;53.048;8.732;2023-03-23T05:38:20;7.20;;;4.32;;
43744;SDS011;29359;53.048;8.732;2023-03-23T05:40:22;5.25;;;4.40;;
43744;SDS011;29359;53.048;8.732;2023-03-23T05:42:25;4.80;;;4.20;;
43744;SDS011;29359;53.048;8.732;2023-03-23T05:44:25;6.18;;;4.13;;
43744;SDS011;29359;53.048;8.732;2023-03-23T05:46:26;6.35;;;4.72;;
43744;SDS011;29359;53.048;8.732;2023-03-23T05:48:27;4.57;;;4.18;;
43744;SDS011;29359;53.048;8.732;2023-03-23T05:50:27;4.97;;;4.40;;
43744;SDS011;29359;53.048;8.732;2023-03-23T05:52:29;4.97;;;4.40;;
43744;SDS011;29359;53.048;8.732;2023-03-23T05:54:32;7.00;;;4.38;;
43744;SDS011;29359;53.048;8.732;2023-03-23T05:56:34;7.22;;;4.60;;
43744;SDS011;29359;53.048;8.732;2023-03-23T05:58:35;5.47;;;4.20;;
43744;SDS011;29359;53.048;8.732;2023-03-23T06:00:35;5.00;;;4.40;;
43744;SDS011;29359;53.048;8.732;2023-03-23T06:02:36;10.27;;;4.50;;
43744;SDS011;29359;53.048;8.732;2023-03-23T06:04:36;5.70;;;3.83;;
43744;SDS011;29359;53.048;8.732;2023-03-23T06:06:38;4.90;;;4.03;;
43744;SDS011;29359;53.048;8.732;2023-03-23T06:08:39;5.00;;;4.43;;
43744;SDS011;29359;53.048;8.732;2023-03-23T06:10:39;5.85;;;4.10;;
43744;SDS011;29359;53.048;8.732;2023-03-23T06:12:40;4.35;;;3.95;;
43744;SDS011;29359;53.048;8.732;2023-03-23T06:14:40;4.43;;;3.80;;
43744;SDS011;29359;53.048;8.732;2023-03-23T06:16:42;4.25;;;3.45;;
43744;SDS011;29359;53.048;8.732;2023-03-23T06:18:42;6.40;;;3.85;;
43744;SDS011;29359;53.048;8.732;2023-03-23T06:20:43;4.75;;;3.67;;
43744;SDS011;29359;53.048;8.732;2023-03-23T06:22:45;3.97;;;3.58;;
43744;SDS011;29359;53.048;8.732;2023-03-23T06:24:45;7.18;;;3.67;;
43744;SDS011;29359;53.048;8.732;2023-03-23T06:26:47;3.85;;;3.38;;
43744;SDS011;29359;53.048;8.732;2023-03-23T06:28:48;4.72;;;3.35;;
43744;SDS011;29359;53.048;8.732;2023-03-23T06:30:49;4.80;;;3.22;;
43744;SDS011;29359;53.048;8.732;2023-03-23T06:32:49;3.47;;;3.08;;
43744;SDS011;29359;53.048;8.732;2023-03-23T06:34:50;4.03;;;3.38;;
43744;SDS011;29359;53.048;8.732;2023-03-23T06:36:50;4.15;;;3.35;;
43744;SDS011;29359;53.048;8.732;2023-03-23T06:38:51;7.68;;;3.55;;
43744;SDS011;29359;53.048;8.732;2023-03-23T06:40:52;3.55;;;3.25;;
43744;SDS011;29359;53.048;8.732;2023-03-23T06:42:53;3.53;;;3.10;;
43744;SDS011;29359;53.048;8.732;2023-03-23T06:44:54;3.90;;;3.22;;
43744;SDS011;29359;53.048;8.732;2023-03-23T06:46:57;5.35;;;3.55;;
43744;SDS011;29359;53.048;8.732;2023-03-23T06:48:57;5.53;;;3.70;;
43744;SDS011;29359;53.048;8.732;2023-03-23T06:50:59;4.13;;;3.58;;
43744;SDS011;29359;53.048;8.732;2023-03-23T06:53:02;5.50;;;3.58;;
43744;SDS011;29359;53.048;8.732;2023-03-23T06:55:03;4.80;;;3.70;;
43744;SDS011;29359;53.048;8.732;2023-03-23T06:57:04;4.90;;;4.13;;
43744;SDS011;29359;53.048;8.732;2023-03-23T06:59:05;3.78;;;3.42;;
43744;SDS011;29359;53.048;8.732;2023-03-23T07:01:05;4.35;;;3.85;;
43744;SDS011;29359;53.048;8.732;2023-03-23T07:03:07;4.20;;;3.80;;
43744;SDS011;29359;53.048;8.732;2023-03-23T07:05:08;4.10;;;3.80;;
43744;SDS011;29359;53.048;8.732;2023-03-23T07:07:10;4.47;;;4.07;;
43744;SDS011;29359;53.048;8.732;2023-03-23T07:09:14;6.00;;;4.00;;
43744;SDS011;29359;53.048;8.732;2023-03-23T07:11:15;8.77;;;4.03;;
43744;SDS011;29359;53.048;8.732;2023-03-23T07:13:16;4.55;;;3.72;;
43744;SDS011;29359;53.048;8.732;2023-03-23T07:15:16;6.22;;;4.28;;
43744;SDS011;29359;53.048;8.732;2023-03-23T07:17:17;5.07;;;4.43;;
43744;SDS011;29359;53.048;8.732;2023-03-23T07:19:18;5.57;;;4.28;;
43744;SDS011;29359;53.048;8.732;2023-03-23T07:21:18;4.55;;;4.18;;
43744;SDS011;29359;53.048;8.732;2023-03-23T07:23:19;5.13;;;4.63;;
43744;SDS011;29359;53.048;8.732;2023-03-23T07:25:20;5.20;;;4.53;;
43744;SDS011;29359;53.048;8.732;2023-03-23T07:27:21;5.18;;;4.65;;
43744;SDS011;29359;53.048;8.732;2023-03-23T07:29:21;5.43;;;4.90;;
43744;SDS011;29359;53.048;8.732;2023-03-23T07:31:22;4.40;;;3.92;;
43744;SDS011;29359;53.048;8.732;2023-03-23T07:33:22;4.63;;;4.13;;
43744;SDS011;29359;53.048;8.732;2023-03-23T07:35:23;3.75;;;2.80;;
43744;SDS011;29359;53.048;8.732;2023-03-23T07:37:25;3.35;;;2.70;;
43744;SDS011;29359;53.048;8.732;2023-03-23T07:39:26;2.88;;;2.42;;
43744;SDS011;29359;53.048;8.732;2023-03-23T07:41:27;3.28;;;2.22;;
43744;SDS011;29359;53.048;8.732;2023-03-23T07:43:28;4.22;;;2.10;;
43744;SDS011;29359;53.048;8.732;2023-03-23T07:45:29;2.78;;;2.00;;
43744;SDS011;29359;53.048;8.732;2023-03-23T07:47:31;6.55;;;1.90;;
43744;SDS011;29359;53.048;8.732;2023-03-23T07:49:31;4.70;;;1.67;;
43744;SDS011;29359;53.048;8.732;2023-03-23T07:51:32;2.45;;;1.83;;
43744;SDS011;29359;53.048;8.732;2023-03-23T07:53:33;2.70;;;1.60;;
43744;SDS011;29359;53.048;8.732;2023-03-23T07:55:33;3.67;;;1.50;;
43744;SDS011;29359;53.048;8.732;2023-03-23T07:57:34;6.00;;;1.70;;
43744;SDS011;29359;53.048;8.732;2023-03-23T07:59:34;3.20;;;1.50;;
43744;SDS011;29359;53.048;8.732;2023-03-23T08:01:37;1.88;;;1.00;;
43744;SDS011;29359;53.048;8.732;2023-03-23T08:03:37;2.58;;;1.20;;
43744;SDS011;29359;53.048;8.732;2023-03-23T08:05:38;2.92;;;1.55;;
43744;SDS011;29359;53.048;8.732;2023-03-23T08:07:39;3.50;;;1.30;;
43744;SDS011;29359;53.048;8.732;2023-03-23T08:09:43;4.97;;;1.25;;
43744;SDS011;29359;53.048;8.732;2023-03-23T08:11:44;3.60;;;1.52;;
43744;SDS011;29359;53.048;8.732;2023-03-23T08:13:45;6.03;;;1.30;;
43744;SDS011;29359;53.048;8.732;2023-03-23T08:15:47;3.78;;;1.60;;
43744;SDS011;29359;53.048;8.732;2023-03-23T08:17:48;3.03;;;1.10;;
43744;SDS011;29359;53.048;8.732;2023-03-23T08:19:50;4.75;;;1.42;;
43744;SDS011;29359;53.048;8.732;2023-03-23T08:21:53;3.03;;;1.00;;
43744;SDS011;29359;53.048;8.732;2023-03-23T08:23:55;3.03;;;1.25;;
43744;SDS011;29359;53.048;8.732;2023-03-23T08:25:57;4.45;;;1.15;;
43744;SDS011;29359;53.048;8.732;2023-03-23T08:27:58;4.60;;;1.17;;
43744;SDS011;29359;53.048;8.732;2023-03-23T08:30:02;7.30;;;1.05;;
43744;SDS011;29359;53.048;8.732;2023-03-23T08:32:07;2.63;;;1.20;;
43744;SDS011;29359;53.048;8.732;2023-03-23T08:34:07;12.43;;;1.80;;
43744;SDS011;29359;53.048;8.732;2023-03-23T08:36:08;8.52;;;1.55;;
43744;SDS011;29359;53.048;8.732;2023-03-23T08:38:10;4.18;;;1.25;;
43744;SDS011;29359;53.048;8.732;2023-03-23T08:40:12;4.80;;;1.40;;
43744;SDS011;29359;53.048;8.732;2023-03-23T08:42:14;6.53;;;1.40;;
43744;SDS011;29359;53.048;8.732;2023-03-23T08:44:17;6.18;;;2.28;;
43744;SDS011;29359;53.048;8.732;2023-03-23T08:46:17;7.95;;;1.73;;
43744;SDS011;29359;53.048;8.732;2023-03-23T08:48:20;11.80;;;2.03;;
43744;SDS011;29359;53.048;8.732;2023-03-23T08:50:22;7.85;;;2.10;;
43744;SDS011;29359;53.048;8.732;2023-03-23T08:52:24;7.88;;;1.98;;
43744;SDS011;29359;53.048;8.732;2023-03-23T08:54:25;8.88;;;1.95;;
43744;SDS011;29359;53.048;8.732;2023-03-23T08:56:26;9.20;;;2.30;;
43744;SDS011;29359;53.048;8.732;2023-03-23T08:58:27;7.22;;;1.58;;
43744;SDS011;29359;53.048;8.732;2023-03-23T09:00:28;8.90;;;2.60;;
43744;SDS011;29359;53.048;8.732;2023-03-23T09:02:29;6.90;;;1.88;;
43744;SDS011;29359;53.048;8.732;2023-03-23T09:04:32;5.72;;;2.15;;
43744;SDS011;29359;53.048;8.732;2023-03-23T09:06:33;7.88;;;2.22;;
43744;SDS011;29359;53.048;8.732;2023-03-23T09:08:36;11.23;;;2.30;;
43744;SDS011;29359;53.048;8.732;2023-03-23T09:10:37;8.20;;;2.13;;
43744;SDS011;29359;53.048;8.732;2023-03-23T09:12:40;8.35;;;1.77;;
43744;SDS011;29359;53.048;8.732;2023-03-23T09:14:41;8.52;;;2.20;;
43744;SDS011;29359;53.048;8.732;2023-03-23T09:16:42;9.50;;;2.33;;
43744;SDS011;29359;53.048;8.732;2023-03-23T09:18:42;9.05;;;1.77;;
43744;SDS011;29359;53.048;8.732;2023-03-23T09:20:43;6.75;;;2.05;;
43744;SDS011;29359;53.048;8.732;2023-03-23T09:22:44;7.13;;;1.77;;
43744;SDS011;29359;53.048;8.732;2023-03-23T09:24:47;8.75;;;2.30;;
43744;SDS011;29359;53.048;8.732;2023-03-23T09:26:47;7.07;;;1.70;;
43744;SDS011;29359;53.048;8.732;2023-03-23T09:28:49;5.95;;;1.75;;
43744;SDS011;29359;53.048;8.732;2023-03-23T09:30:51;7.63;;;2.03;;
43744;SDS011;29359;53.048;8.732;2023-03-23T09:32:58;6.65;;;1.90;;
43744;SDS011;29359;53.048;8.732;2023-03-23T09:35:01;6.03;;;1.58;;
43744;SDS011;29359;53.048;8.732;2023-03-23T09:37:02;6.25;;;1.60;;
43744;SDS011;29359;53.048;8.732;2023-03-23T09:39:05;8.57;;;1.95;;
43744;SDS011;29359;53.048;8.732;2023-03-23T09:41:17;4.55;;;1.52;;
43744;SDS011;29359;53.048;8.732;2023-03-23T09:47:55;4.50;;;1.27;;
43744;SDS011;29359;53.048;8.732;2023-03-23T09:50:00;6.20;;;2.10;;
43744;SDS011;29359;53.048;8.732;2023-03-23T09:52:10;5.70;;;1.42;;
43744;SDS011;29359;53.048;8.732;2023-03-23T09:56:20;4.45;;;1.75;;
43744;SDS011;29359;53.048;8.732;2023-03-23T09:58:33;6.53;;;1.77;;
43744;SDS011;29359;53.048;8.732;2023-03-23T10:00:40;10.27;;;1.98;;
43744;SDS011;29359;53.048;8.732;2023-03-23T10:04:51;6.57;;;1.90;;
43744;SDS011;29359;53.048;8.732;2023-03-23T10:06:58;10.93;;;2.17;;
43744;SDS011;29359;53.048;8.732;2023-03-23T10:09:04;8.02;;;2.10;;
43744;SDS011;29359;53.048;8.732;2023-03-23T10:13:17;10.85;;;1.85;;
43744;SDS011;29359;53.048;8.732;2023-03-23T10:15:29;7.32;;;1.80;;
43744;SDS011;29359;53.048;8.732;2023-03-23T10:19:58;6.53;;;1.90;;
43744;SDS011;29359;53.048;8.732;2023-03-23T10:22:16;9.43;;;2.17;;
43744;SDS011;29359;53.048;8.732;2023-03-23T10:24:25;10.75;;;2.38;;
43744;SDS011;29359;53.048;8.732;2023-03-23T10:26:37;7.38;;;1.92;;
43744;SDS011;29359;53.048;8.732;2023-03-23T10:28:45;6.30;;;2.17;;
43744;SDS011;29359;53.048;8.732;2023-03-23T10:30:53;11.15;;;2.38;;
43744;SDS011;29359;53.048;8.732;2023-03-23T10:32:58;8.43;;;2.20;;
43744;SDS011;29359;53.048;8.732;2023-03-23T10:35:04;5.55;;;2.13;;
43744;SDS011;29359;53.048;8.732;2023-03-23T10:37:56;9.85;;;2.17;;
43744;SDS011;29359;53.048;8.732;2023-03-23T10:39:52;8.43;;;2.25;;
43744;SDS011;29359;53.048;8.732;2023-03-23T10:41:57;5.32;;;1.63;;
43744;SDS011;29359;53.048;8.732;2023-03-23T10:44:12;9.50;;;2.10;;
43744;SDS011;29359;53.048;8.732;2023-03-23T10:48:30;6.78;;;1.73;;
43744;SDS011;29359;53.048;8.732;2023-03-23T10:50:37;9.50;;;2.05;;
43744;SDS011;29359;53.048;8.732;2023-03-23T10:52:40;9.77;;;2.22;;
43744;SDS011;29359;53.048;8.732;2023-03-23T10:54:55;7.55;;;2.17;;
43744;SDS011;29359;53.048;8.732;2023-03-23T10:56:59;9.98;;;2.60;;
43744;SDS011;29359;53.048;8.732;2023-03-23T10:59:10;7.95;;;1.83;;
43744;SDS011;29359;53.048;8.732;2023-03-23T11:01:15;9.85;;;2.28;;
43744;SDS011;29359;53.048;8.732;2023-03-23T11:03:22;7.43;;;1.95;;
43744;SDS011;29359;53.048;8.732;2023-03-23T11:05:31;7.05;;;1.98;;
43744;SDS011;29359;53.048;8.732;2023-03-23T11:07:36;12.95;;;2.70;;
43744;SDS011;29359;53.048;8.732;2023-03-23T11:09:40;11.55;;;2.00;;
43744;SDS011;29359;53.048;8.732;2023-03-23T11:11:53;6.10;;;1.60;;
43744;SDS011;29359;53.048;8.732;2023-03-23T11:13:57;10.93;;;2.55;;
43744;SDS011;29359;53.048;8.732;2023-03-23T11:16:44;6.20;;;1.90;;
43744;SDS011;29359;53.048;8.732;2023-03-23T11:18:49;12.40;;;2.42;;
43744;SDS011;29359;53.048;8.732;2023-03-23T11:20:55;7.70;;;1.83;;
43744;SDS011;29359;53.048;8.732;2023-03-23T11:22:58;6.80;;;1.65;;
43744;SDS011;29359;53.048;8.732;2023-03-23T11:25:02;5.90;;;1.98;;
43744;SDS011;29359;53.048;8.732;2023-03-23T11:27:05;6.80;;;1.73;;
43744;SDS011;29359;53.048;8.732;2023-03-23T11:29:17;7.28;;;2.28;;
43744;SDS011;29359;53.048;8.732;2023-03-23T11:31:33;7.80;;;2.28;;
43744;SDS011;29359;53.048;8.732;2023-03-23T11:33:41;8.60;;;2.70;;
43744;SDS011;29359;53.048;8.732;2023-03-23T11:35:50;8.98;;;2.38;;
43744;SDS011;29359;53.048;8.732;2023-03-23T11:37:54;11.70;;;2.95;;
43744;SDS011;29359;53.048;8.732;2023-03-23T11:39:58;7.25;;;1.98;;
43744;SDS011;29359;53.048;8.732;2023-03-23T11:42:01;4.13;;;2.10;;
43744;SDS011;29359;53.048;8.732;2023-03-23T11:44:11;7.43;;;2.22;;
43744;SDS011;29359;53.048;8.732;2023-03-23T11:46:16;7.57;;;2.30;;
43744;SDS011;29359;53.048;8.732;2023-03-23T11:50:32;10.38;;;2.28;;
43744;SDS011;29359;53.048;8.732;2023-03-23T11:55:16;5.80;;;2.33;;
43744;SDS011;29359;53.048;8.732;2023-03-23T11:57:22;7.88;;;2.15;;
43744;SDS011;29359;53.048;8.732;2023-03-23T11:59:28;7.55;;;2.20;;
43744;SDS011;29359;53.048;8.732;2023-03-23T12:03:59;3.95;;;1.58;;
43744;SDS011;29359;53.048;8.732;2023-03-23T12:06:29;3.95;;;1.85;;
43744;SDS011;29359;53.048;8.732;2023-03-23T12:16:17;4.25;;;1.63;;
43744;SDS011;29359;53.048;8.732;2023-03-23T12:18:40;5.20;;;1.63;;
43744;SDS011;29359;53.048;8.732;2023-03-23T12:20:57;4.93;;;1.63;;
43744;SDS011;29359;53.048;8.732;2023-03-23T12:23:35;4.10;;;1.52;;
43744;SDS011;29359;53.048;8.732;2023-03-23T12:30:46;3.53;;;1.20;;
43744;SDS011;29359;53.048;8.732;2023-03-23T12:33:09;7.68;;;1.42;;
43744;SDS011;29359;53.048;8.732;2023-03-23T12:45:00;3.35;;;1.15;;
43744;SDS011;29359;53.048;8.732;2023-03-23T12:47:12;3.35;;;1.55;;
43744;SDS011;29359;53.048;8.732;2023-03-23T12:49:42;3.20;;;1.25;;
43744;SDS011;29359;53.048;8.732;2023-03-23T13:05:44;3.00;;;0.98;;
43744;SDS011;29359;53.048;8.732;2023-03-23T13:10:23;4.38;;;1.40;;
43744;SDS011;29359;53.048;8.732;2023-03-23T13:12:28;2.75;;;0.98;;
43744;SDS011;29359;53.048;8.732;2023-03-23T13:22:17;3.92;;;1.20;;
43744;SDS011;29359;53.048;8.732;2023-03-23T13:24:20;3.85;;;1.30;;
43744;SDS011;29359;53.048;8.732;2023-03-23T13:26:25;4.53;;;1.13;;
43744;SDS011;29359;53.048;8.732;2023-03-23T13:28:28;4.25;;;1.35;;
43744;SDS011;29359;53.048;8.732;2023-03-23T13:30:35;3.88;;;1.00;;
43744;SDS011;29359;53.048;8.732;2023-03-23T13:32:37;3.20;;;1.38;;
43744;SDS011;29359;53.048;8.732;2023-03-23T13:34:39;4.32;;;1.65;;
43744;SDS011;29359;53.048;8.732;2023-03-23T13:36:41;2.85;;;1.15;;
43744;SDS011;29359;53.048;8.732;2023-03-23T13:38:45;3.15;;;1.75;;
43744;SDS011;29359;53.048;8.732;2023-03-23T13:40:49;7.03;;;2.17;;
43744;SDS011;29359;53.048;8.732;2023-03-23T13:42:52;4.13;;;0.98;;
43744;SDS011;29359;53.048;8.732;2023-03-23T13:44:57;2.78;;;0.77;;
43744;SDS011;29359;53.048;8.732;2023-03-23T13:49:22;3.90;;;0.85;;
43744;SDS011;29359;53.048;8.732;2023-03-23T13:53:44;3.92;;;1.05;;
43744;SDS011;29359;53.048;8.732;2023-03-23T13:55:50;4.57;;;0.90;;
43744;SDS011;29359;53.048;8.732;2023-03-23T14:04:37;2.78;;;1.00;;
43744;SDS011;29359;53.048;8.732;2023-03-23T14:06:37;3.58;;;0.90;;
43744;SDS011;29359;53.048;8.732;2023-03-23T14:08:39;6.50;;;0.90;;